| time (UTC) | temp C | wind direction | speed KPH | gust KPH | rain 1hr cm | rain 24hr cm | rain mn cm | humidity % | barometer mb |
| 20260506111544 | 16 | 0 | 0.0 | 0.0 | 0.00 | 0.00 | 0.00 | 89 | 1015.7 |
| 20260506110041 | 16 | 0 | 0.0 | 0.0 | 0.00 | 0.00 | 0.00 | 89 | 1015.4 |
| 20260506104547 | 16 | 0 | 0.0 | 0.0 | 0.00 | 0.00 | 0.00 | 88 | 1015.2 |
| 20260506103040 | 16 | 0 | 0.0 | 0.0 | 0.00 | 0.00 | 0.00 | 88 | 1015.0 |
| 20260506101538 | 16 | 0 | 0.0 | 0.0 | 0.00 | 0.00 | 0.00 | 87 | 1014.6 |
| 20260506100039 | 16 | 0 | 0.0 | 0.0 | 0.00 | 0.00 | 0.00 | 87 | 1014.3 |
| 20260506094554 | 16 | 0 | 0.0 | 0.0 | 0.00 | 0.00 | 0.00 | 86 | 1014.4 |
| 20260506093041 | 16 | 0 | 0.0 | 0.0 | 0.00 | 0.00 | 0.00 | 85 | 1014.4 |
| 20260506091539 | 16 | 0 | 0.0 | 0.0 | 0.00 | 0.00 | 0.00 | 85 | 1014.5 |
| 20260506090038 | 16 | 0 | 0.0 | 0.0 | 0.00 | 0.00 | 0.00 | 84 | 1014.3 |
| 20260506084542 | 16 | 0 | 0.0 | 0.0 | 0.00 | 0.00 | 0.00 | 84 | 1014.1 |
| 20260506083046 | 16 | 0 | 0.0 | 0.0 | 0.00 | 0.00 | 0.00 | 83 | 1014.6 |
| 20260506081544 | 16 | 0 | 0.0 | 0.0 | 0.00 | 0.00 | 0.00 | 82 | 1014.7 |
| 20260506073040 | 17 | 0 | 0.0 | 0.0 | 0.00 | 0.00 | 0.00 | 78 | 1014.9 |
| 20260506071542 | 17 | 0 | 0.0 | 0.0 | 0.00 | 0.00 | 0.00 | 77 | 1015.0 |
| 20260506061539 | 17 | 0 | 0.0 | 0.0 | 0.00 | 0.00 | 0.00 | 72 | 1015.0 |
| 20260506044547 | 18 | 0 | 0.0 | 1.6 | 0.00 | 0.00 | 0.00 | 69 | 1014.9 |
| 20260506043042 | 18 | 0 | 0.0 | 1.6 | 0.00 | 0.00 | 0.00 | 68 | 1014.9 |
| 20260506041539 | 18 | 0 | 0.0 | 0.0 | 0.00 | 0.00 | 0.00 | 68 | 1015.1 |
| 20260506040041 | 18 | 0 | 0.0 | 0.0 | 0.00 | 0.00 | 0.00 | 68 | 1015.1 |
| 20260506034538 | 18 | 0 | 0.0 | 1.6 | 0.00 | 0.00 | 0.00 | 66 | 1015.4 |
| 20260506033046 | 19 | 0 | 0.0 | 0.0 | 0.00 | 0.00 | 0.00 | 65 | 1015.3 |
| 20260506031546 | 19 | 0 | 0.0 | 0.0 | 0.00 | 0.00 | 0.00 | 63 | 1015.1 |
| 20260506030040 | 19 | 0 | 0.0 | 1.6 | 0.00 | 0.00 | 0.00 | 62 | 1014.9 |
| 20260506024556 | 19 | 0 | 0.0 | 1.6 | 0.00 | 0.00 | 0.00 | 62 | 1015.0 |
| 20260506023045 | 20 | 0 | 0.0 | 0.0 | 0.00 | 0.00 | 0.00 | 61 | 1015.3 |
| 20260506021541 | 20 | 0 | 0.0 | 0.0 | 0.00 | 0.00 | 0.00 | 59 | 1015.4 |
| 20260506020040 | 20 | 0 | 0.0 | 0.0 | 0.00 | 0.00 | 0.00 | 58 | 1015.3 |
| 20260506014541 | 21 | 0 | 0.0 | 0.0 | 0.00 | 0.00 | 0.00 | 57 | 1015.1 |
| 20260506013046 | 21 | 0 | 0.0 | 0.0 | 0.00 | 0.00 | 0.00 | 54 | 1015.2 |
| 20260506011543 | 22 | 0 | 0.0 | 0.0 | 0.00 | 0.00 | 0.00 | 54 | 1014.8 |
| 20260506010041 | 22 | 0 | 0.0 | 1.6 | 0.00 | 0.00 | 0.00 | 51 | 1014.8 |
| 20260506004540 | 23 | 0 | 0.0 | 0.0 | 0.00 | 0.00 | 0.00 | 50 | 1014.8 |
| 20260506003040 | 23 | 0 | 0.0 | 1.6 | 0.00 | 0.00 | 0.00 | 47 | 1015.0 |
| 20260506001546 | 25 | 0 | 0.0 | 1.6 | 0.00 | 0.00 | 0.00 | 45 | 1014.7 |
| 20260506000044 | 25 | 63 | 0.0 | 6.4 | 0.00 | 0.00 | 0.00 | 39 | 1014.9 |
| 20260505234546 | 26 | 0 | 0.0 | 4.8 | 0.00 | 0.00 | 0.00 | 38 | 1014.7 |
| 20260505233038 | 26 | 94 | 0.0 | 8.0 | 0.00 | 0.00 | 0.00 | 37 | 1014.6 |
| 20260505231557 | 26 | 0 | 1.6 | 12.9 | 0.00 | 0.00 | 0.00 | 35 | 1014.5 |
| 20260505230055 | 27 | 49 | 3.2 | 12.9 | 0.00 | 0.00 | 0.00 | 34 | 1014.5 |
| 20260505224540 | 27 | 38 | 1.6 | 11.3 | 0.00 | 0.00 | 0.00 | 34 | 1014.3 |
| 20260505223048 | 28 | 98 | 3.2 | 12.9 | 0.00 | 0.00 | 0.00 | 33 | 1014.4 |
| 20260505221548 | 28 | 0 | 0.0 | 9.7 | 0.00 | 0.00 | 0.00 | 33 | 1014.3 |
| 20260505220044 | 29 | 0 | 0.0 | 9.7 | 0.00 | 0.00 | 0.00 | 32 | 1014.4 |
| 20260505214540 | 29 | 0 | 1.6 | 14.5 | 0.00 | 0.00 | 0.00 | 31 | 1014.5 |
| 20260505213050 | 28 | 0 | 1.6 | 11.3 | 0.00 | 0.00 | 0.00 | 33 | 1014.6 |
| 20260505211547 | 28 | 342 | 4.8 | 19.3 | 0.00 | 0.00 | 0.00 | 32 | 1014.6 |
| 20260505210046 | 29 | 91 | 1.6 | 9.7 | 0.00 | 0.00 | 0.00 | 32 | 1014.4 |
| 20260505204543 | 29 | 112 | 0.0 | 12.9 | 0.00 | 0.00 | 0.00 | 32 | 1014.9 |
| 20260505203041 | 29 | 291 | 0.0 | 9.7 | 0.00 | 0.00 | 0.00 | 33 | 1014.9 |
| 20260505201546 | 28 | 0 | 3.2 | 16.1 | 0.00 | 0.00 | 0.00 | 34 | 1015.0 |
| 20260505200040 | 28 | 352 | 3.2 | 11.3 | 0.00 | 0.00 | 0.00 | 35 | 1015.1 |
| 20260505194540 | 28 | 0 | 3.2 | 16.1 | 0.00 | 0.00 | 0.00 | 32 | 1015.2 |
| 20260505193038 | 28 | 5 | 3.2 | 12.9 | 0.00 | 0.00 | 0.00 | 34 | 1015.4 |
| 20260505191541 | 28 | 130 | 3.2 | 11.3 | 0.00 | 0.00 | 0.00 | 34 | 1015.6 |
| 20260505190045 | 28 | 352 | 3.2 | 16.1 | 0.00 | 0.00 | 0.00 | 34 | 1015.7 |
| 20260505184556 | 28 | 0 | 0.0 | 11.3 | 0.00 | 0.00 | 0.00 | 37 | 1015.9 |
| 20260505183049 | 27 | 29 | 1.6 | 12.9 | 0.00 | 0.00 | 0.00 | 38 | 1016.0 |
| 20260505181538 | 26 | 94 | 4.8 | 20.9 | 0.00 | 0.00 | 0.00 | 40 | 1016.5 |
| 20260505180046 | 26 | 74 | 3.2 | 14.5 | 0.00 | 0.00 | 0.00 | 43 | 1016.7 |
| 20260505174554 | 26 | 0 | 1.6 | 8.0 | 0.00 | 0.00 | 0.00 | 43 | 1016.7 |
| 20260505173044 | 25 | 32 | 0.0 | 17.7 | 0.00 | 0.00 | 0.00 | 43 | 1017.0 |
| 20260505171548 | 25 | 60 | 4.8 | 12.9 | 0.00 | 0.00 | 0.00 | 44 | 1017.2 |
| 20260505170046 | 24 | 59 | 3.2 | 11.3 | 0.00 | 0.00 | 0.00 | 47 | 1017.2 |
| 20260505164543 | 23 | 99 | 1.6 | 16.1 | 0.00 | 0.00 | 0.00 | 49 | 1017.3 |
| 20260505163042 | 22 | 74 | 1.6 | 14.5 | 0.00 | 0.00 | 0.00 | 53 | 1017.2 |
| 20260505161539 | 22 | 0 | 3.2 | 12.9 | 0.00 | 0.00 | 0.00 | 54 | 1017.4 |
| 20260505153045 | 20 | 0 | 1.6 | 12.9 | 0.00 | 0.00 | 0.00 | 59 | 1018.2 |
| 20260505151541 | 19 | 0 | 0.0 | 6.4 | 0.00 | 0.00 | 0.00 | 63 | 1018.3 |
| 20260505124557 | 12 | 17 | 1.6 | 8.0 | 0.00 | 0.00 | 0.00 | 81 | 1017.2 |
| 20260505123059 | 12 | 318 | 1.6 | 4.8 | 0.00 | 0.00 | 0.00 | 81 | 1016.7 |
| 20260505121539 | 11 | 0 | 0.0 | 3.2 | 0.00 | 0.00 | 0.00 | 81 | 1016.7 |
| 20260505120051 | 11 | 0 | 0.0 | 3.2 | 0.00 | 0.00 | 0.00 | 82 | 1016.6 |
| 20260505114546 | 11 | 0 | 0.0 | 4.8 | 0.00 | 0.00 | 0.00 | 83 | 1016.5 |
| 20260505113049 | 11 | 0 | 0.0 | 4.8 | 0.00 | 0.00 | 0.00 | 86 | 1016.1 |